Terminal Aerodrome Forecast
Issued by NWS

Home | Current Version | Previous Version | Text Only | Print | Product List | Glossary Off
Versions: 1 2 3 4 5 6 7 8 9 10 11 12 13 14 15 16 17 18

000
FTUS43 KABR 171307 AAA
TAFMBG
TAF AMD
KMBG 171307Z 1713/1812 36003KT P6SM SCT090 SCT110
     FM180800 31005KT P6SM SCT200
     FM181100 31009KT P6SM SCT120=

USA.gov is the U.S. government's official web portal to all federal, state and local government web resources and services.